Ana Sayfa
METAR-TAF:

METAR-TAF

Havaalanları :

Şanghay Pudong Uluslararası Havalimanı

Şanghay-Pudong, Çin

Enlem: 31-07N, Boylam: 121-46E, yükseklik: 4 m

Güncel hava durumu gözlemi

Rapor saat 05:00 UTC de 17 dakika önce yapıldı.
Rüzgar kuzeydoğudan 12 kt, kuzey ve doğu arasında değişken
Sıcaklık 26°C
Nem 48%
Basınç 1016 hPa
Görüş mesafesi 10 km veya daha fazla
1500 m altında bulut yok ve kümülonimbus yok

METAR: ZSPD 250500Z 05006MPS 010V080 CAVOK 26/14 Q1016 NOSIG

Saat: 13:17 (05:17 UTC)

Tahmin

Rapor saat 21:15 UTC de 8 saat ve 2 dakika önce yapıldı.
Ayın 25'si saat 00 UTC'den ayın 25'si saat 24 UTC'ye kadar geçerli Tahmin
Rüzgar kuzeydoğudan 12 kt
Görüş mesafesi: 6000 m
1600 ft yükseklikte parçalı çok bulutlu

TAF: ZSPD 242115Z 2500/2524 04006MPS 6000 BKN016 TX26/2506Z TN21/2521Z

4.000'den fazla havaalanı için hava durumu gözlemleri ve tahminleri (METAR ve TAF raporları).

Kullanılabilir istasyonlar harita üzerinde sarı ve kırmızı noktalarla gösterilir.

İstasyonun adını görmek için fareyi noktanın üzerinde gezdirin.

Sonrasında hava gözlem ve tahminlerini görmek için tıklayın.

Haritayı değiştirmek için: yaklaştırmak için siyah artı işaretli yeşil düğmeye ve uzaklaştırmak için de eksi işaretli düğmeye hızla tıklayın; bitişik haritalar için yeşil okları kullanın.


METAR-TAF: